sensor_id;sensor_type;location;lat;lon;timestamp;P1;durP1;ratioP1;P2;durP2;ratioP2
21886;SDS011;11108;49.988;8.182;2023-04-03T00:00:01;1.90;;;1.10;;
21886;SDS011;11108;49.988;8.182;2023-04-03T00:02:26;1.00;;;1.00;;
21886;SDS011;11108;49.988;8.182;2023-04-03T00:04:51;1.00;;;0.87;;
21886;SDS011;11108;49.988;8.182;2023-04-03T00:07:16;0.90;;;0.90;;
21886;SDS011;11108;49.988;8.182;2023-04-03T00:09:42;0.90;;;0.90;;
21886;SDS011;11108;49.988;8.182;2023-04-03T00:12:07;1.17;;;1.10;;
21886;SDS011;11108;49.988;8.182;2023-04-03T00:14:32;0.97;;;0.80;;
21886;SDS011;11108;49.988;8.182;2023-04-03T00:16:57;1.13;;;1.10;;
21886;SDS011;11108;49.988;8.182;2023-04-03T00:19:22;1.10;;;1.00;;
21886;SDS011;11108;49.988;8.182;2023-04-03T00:21:48;0.80;;;0.80;;
21886;SDS011;11108;49.988;8.182;2023-04-03T00:24:13;1.00;;;1.00;;
21886;SDS011;11108;49.988;8.182;2023-04-03T00:26:38;0.97;;;0.83;;
21886;SDS011;11108;49.988;8.182;2023-04-03T00:29:03;1.40;;;1.30;;
21886;SDS011;11108;49.988;8.182;2023-04-03T00:31:28;1.33;;;1.23;;
21886;SDS011;11108;49.988;8.182;2023-04-03T00:33:54;1.70;;;1.20;;
21886;SDS011;11108;49.988;8.182;2023-04-03T00:36:19;0.90;;;0.90;;
21886;SDS011;11108;49.988;8.182;2023-04-03T00:38:44;0.83;;;0.83;;
21886;SDS011;11108;49.988;8.182;2023-04-03T00:41:10;1.07;;;1.07;;
21886;SDS011;11108;49.988;8.182;2023-04-03T00:43:35;1.10;;;1.10;;
21886;SDS011;11108;49.988;8.182;2023-04-03T00:46:00;1.37;;;1.27;;
21886;SDS011;11108;49.988;8.182;2023-04-03T00:48:28;0.90;;;0.90;;
21886;SDS011;11108;49.988;8.182;2023-04-03T00:50:54;0.90;;;0.90;;
21886;SDS011;11108;49.988;8.182;2023-04-03T00:53:22;1.20;;;1.07;;
21886;SDS011;11108;49.988;8.182;2023-04-03T00:55:48;1.00;;;1.00;;
21886;SDS011;11108;49.988;8.182;2023-04-03T00:58:14;1.10;;;1.00;;
21886;SDS011;11108;49.988;8.182;2023-04-03T01:00:41;1.13;;;1.10;;
21886;SDS011;11108;49.988;8.182;2023-04-03T01:03:08;0.90;;;0.90;;
21886;SDS011;11108;49.988;8.182;2023-04-03T01:05:33;1.10;;;1.10;;
21886;SDS011;11108;49.988;8.182;2023-04-03T01:07:58;1.10;;;1.00;;
21886;SDS011;11108;49.988;8.182;2023-04-03T01:10:24;1.13;;;0.80;;
21886;SDS011;11108;49.988;8.182;2023-04-03T01:12:50;1.13;;;1.07;;
21886;SDS011;11108;49.988;8.182;2023-04-03T01:15:17;0.93;;;0.90;;
21886;SDS011;11108;49.988;8.182;2023-04-03T01:17:44;1.10;;;1.00;;
21886;SDS011;11108;49.988;8.182;2023-04-03T01:22:48;1.03;;;1.03;;
21886;SDS011;11108;49.988;8.182;2023-04-03T01:25:17;1.00;;;1.00;;
21886;SDS011;11108;49.988;8.182;2023-04-03T01:27:43;0.97;;;0.97;;
21886;SDS011;11108;49.988;8.182;2023-04-03T01:30:08;0.93;;;0.93;;
21886;SDS011;11108;49.988;8.182;2023-04-03T01:32:33;0.93;;;0.93;;
21886;SDS011;11108;49.988;8.182;2023-04-03T01:34:58;0.97;;;0.97;;
21886;SDS011;11108;49.988;8.182;2023-04-03T01:37:24;1.20;;;1.10;;
21886;SDS011;11108;49.988;8.182;2023-04-03T01:39:49;0.83;;;0.83;;
21886;SDS011;11108;49.988;8.182;2023-04-03T01:42:14;1.00;;;1.00;;
21886;SDS011;11108;49.988;8.182;2023-04-03T01:44:41;1.20;;;1.10;;
21886;SDS011;11108;49.988;8.182;2023-04-03T01:47:06;0.97;;;0.87;;
21886;SDS011;11108;49.988;8.182;2023-04-03T01:49:32;0.67;;;0.67;;
21886;SDS011;11108;49.988;8.182;2023-04-03T01:51:57;1.40;;;0.83;;
21886;SDS011;11108;49.988;8.182;2023-04-03T01:54:22;0.83;;;0.83;;
21886;SDS011;11108;49.988;8.182;2023-04-03T01:56:47;0.87;;;0.87;;
21886;SDS011;11108;49.988;8.182;2023-04-03T01:59:12;0.90;;;0.90;;
21886;SDS011;11108;49.988;8.182;2023-04-03T02:01:38;0.90;;;0.90;;
21886;SDS011;11108;49.988;8.182;2023-04-03T02:04:03;1.07;;;0.80;;
21886;SDS011;11108;49.988;8.182;2023-04-03T02:06:28;1.00;;;0.90;;
21886;SDS011;11108;49.988;8.182;2023-04-03T02:08:53;0.90;;;0.90;;
21886;SDS011;11108;49.988;8.182;2023-04-03T02:11:19;0.80;;;0.80;;
21886;SDS011;11108;49.988;8.182;2023-04-03T02:13:45;1.20;;;1.20;;
21886;SDS011;11108;49.988;8.182;2023-04-03T02:16:10;0.80;;;0.80;;
21886;SDS011;11108;49.988;8.182;2023-04-03T02:18:36;0.70;;;0.70;;
21886;SDS011;11108;49.988;8.182;2023-04-03T02:21:01;0.93;;;0.93;;
21886;SDS011;11108;49.988;8.182;2023-04-03T02:23:26;1.10;;;1.00;;
21886;SDS011;11108;49.988;8.182;2023-04-03T02:25:51;1.07;;;1.07;;
21886;SDS011;11108;49.988;8.182;2023-04-03T02:28:16;0.80;;;0.80;;
21886;SDS011;11108;49.988;8.182;2023-04-03T02:30:42;0.93;;;0.93;;
21886;SDS011;11108;49.988;8.182;2023-04-03T02:33:07;0.90;;;0.90;;
21886;SDS011;11108;49.988;8.182;2023-04-03T02:35:32;0.70;;;0.70;;
21886;SDS011;11108;49.988;8.182;2023-04-03T02:37:57;1.00;;;1.00;;
21886;SDS011;11108;49.988;8.182;2023-04-03T02:40:22;0.90;;;0.90;;
21886;SDS011;11108;49.988;8.182;2023-04-03T02:42:48;1.00;;;1.00;;
21886;SDS011;11108;49.988;8.182;2023-04-03T02:45:13;1.10;;;1.00;;
21886;SDS011;11108;49.988;8.182;2023-04-03T02:47:38;1.07;;;1.00;;
21886;SDS011;11108;49.988;8.182;2023-04-03T02:50:03;0.90;;;0.90;;
21886;SDS011;11108;49.988;8.182;2023-04-03T02:52:29;1.23;;;1.00;;
21886;SDS011;11108;49.988;8.182;2023-04-03T02:54:54;0.90;;;0.90;;
21886;SDS011;11108;49.988;8.182;2023-04-03T02:57:19;0.80;;;0.80;;
21886;SDS011;11108;49.988;8.182;2023-04-03T02:59:44;1.53;;;0.90;;
21886;SDS011;11108;49.988;8.182;2023-04-03T03:02:10;1.50;;;0.90;;
21886;SDS011;11108;49.988;8.182;2023-04-03T03:04:35;0.80;;;0.80;;
21886;SDS011;11108;49.988;8.182;2023-04-03T03:07:01;0.90;;;0.90;;
21886;SDS011;11108;49.988;8.182;2023-04-03T03:09:26;1.00;;;1.00;;
21886;SDS011;11108;49.988;8.182;2023-04-03T03:11:51;0.73;;;0.73;;
21886;SDS011;11108;49.988;8.182;2023-04-03T03:14:17;1.10;;;1.10;;
21886;SDS011;11108;49.988;8.182;2023-04-03T03:16:42;0.60;;;0.60;;
21886;SDS011;11108;49.988;8.182;2023-04-03T03:19:07;0.80;;;0.80;;
21886;SDS011;11108;49.988;8.182;2023-04-03T03:21:32;0.77;;;0.73;;
21886;SDS011;11108;49.988;8.182;2023-04-03T03:23:57;0.77;;;0.77;;
21886;SDS011;11108;49.988;8.182;2023-04-03T03:26:23;0.63;;;0.63;;
21886;SDS011;11108;49.988;8.182;2023-04-03T03:28:48;0.60;;;0.60;;
21886;SDS011;11108;49.988;8.182;2023-04-03T03:31:13;0.83;;;0.83;;
21886;SDS011;11108;49.988;8.182;2023-04-03T03:33:40;1.03;;;0.90;;
21886;SDS011;11108;49.988;8.182;2023-04-03T03:36:06;0.73;;;0.73;;
21886;SDS011;11108;49.988;8.182;2023-04-03T03:38:31;1.70;;;0.87;;
21886;SDS011;11108;49.988;8.182;2023-04-03T03:40:56;0.70;;;0.70;;
21886;SDS011;11108;49.988;8.182;2023-04-03T03:43:21;0.70;;;0.70;;
21886;SDS011;11108;49.988;8.182;2023-04-03T03:45:50;0.90;;;0.90;;
21886;SDS011;11108;49.988;8.182;2023-04-03T03:48:16;0.80;;;0.80;;
21886;SDS011;11108;49.988;8.182;2023-04-03T03:50:41;0.73;;;0.73;;
21886;SDS011;11108;49.988;8.182;2023-04-03T03:53:06;0.80;;;0.80;;
21886;SDS011;11108;49.988;8.182;2023-04-03T03:55:31;1.13;;;0.80;;
21886;SDS011;11108;49.988;8.182;2023-04-03T03:57:57;0.80;;;0.80;;
21886;SDS011;11108;49.988;8.182;2023-04-03T04:00:22;0.80;;;0.80;;
21886;SDS011;11108;49.988;8.182;2023-04-03T04:02:47;0.80;;;0.80;;
21886;SDS011;11108;49.988;8.182;2023-04-03T04:05:12;0.90;;;0.90;;
21886;SDS011;11108;49.988;8.182;2023-04-03T04:07:37;0.63;;;0.63;;
21886;SDS011;11108;49.988;8.182;2023-04-03T04:10:03;0.83;;;0.80;;
21886;SDS011;11108;49.988;8.182;2023-04-03T04:12:28;0.90;;;0.90;;
21886;SDS011;11108;49.988;8.182;2023-04-03T04:14:53;1.10;;;1.00;;
21886;SDS011;11108;49.988;8.182;2023-04-03T04:17:18;0.70;;;0.70;;
21886;SDS011;11108;49.988;8.182;2023-04-03T04:19:44;0.70;;;0.70;;
21886;SDS011;11108;49.988;8.182;2023-04-03T04:22:09;0.93;;;0.93;;
21886;SDS011;11108;49.988;8.182;2023-04-03T04:24:35;0.80;;;0.80;;
21886;SDS011;11108;49.988;8.182;2023-04-03T04:27:00;0.70;;;0.70;;
21886;SDS011;11108;49.988;8.182;2023-04-03T04:29:25;0.90;;;0.90;;
21886;SDS011;11108;49.988;8.182;2023-04-03T04:31:50;0.67;;;0.67;;
21886;SDS011;11108;49.988;8.182;2023-04-03T04:34:15;0.90;;;0.73;;
21886;SDS011;11108;49.988;8.182;2023-04-03T04:36:41;0.90;;;0.90;;
21886;SDS011;11108;49.988;8.182;2023-04-03T04:39:06;0.50;;;0.50;;
21886;SDS011;11108;49.988;8.182;2023-04-03T04:41:32;0.80;;;0.80;;
21886;SDS011;11108;49.988;8.182;2023-04-03T04:43:57;0.93;;;0.90;;
21886;SDS011;11108;49.988;8.182;2023-04-03T04:46:23;0.60;;;0.60;;
21886;SDS011;11108;49.988;8.182;2023-04-03T04:48:48;0.70;;;0.70;;
21886;SDS011;11108;49.988;8.182;2023-04-03T04:51:13;1.13;;;0.73;;
21886;SDS011;11108;49.988;8.182;2023-04-03T04:53:39;0.77;;;0.77;;
21886;SDS011;11108;49.988;8.182;2023-04-03T04:56:04;0.80;;;0.80;;
21886;SDS011;11108;49.988;8.182;2023-04-03T04:58:30;0.60;;;0.60;;
21886;SDS011;11108;49.988;8.182;2023-04-03T05:00:59;0.60;;;0.60;;
21886;SDS011;11108;49.988;8.182;2023-04-03T05:03:24;0.97;;;0.83;;
21886;SDS011;11108;49.988;8.182;2023-04-03T05:05:49;0.77;;;0.77;;
21886;SDS011;11108;49.988;8.182;2023-04-03T05:08:15;0.77;;;0.70;;
21886;SDS011;11108;49.988;8.182;2023-04-03T05:10:40;0.80;;;0.80;;
21886;SDS011;11108;49.988;8.182;2023-04-03T05:13:06;0.60;;;0.60;;
21886;SDS011;11108;49.988;8.182;2023-04-03T05:15:31;0.80;;;0.73;;
21886;SDS011;11108;49.988;8.182;2023-04-03T05:17:57;0.77;;;0.77;;
21886;SDS011;11108;49.988;8.182;2023-04-03T05:20:22;0.70;;;0.70;;
21886;SDS011;11108;49.988;8.182;2023-04-03T05:22:47;0.80;;;0.80;;
21886;SDS011;11108;49.988;8.182;2023-04-03T05:25:12;0.70;;;0.67;;
21886;SDS011;11108;49.988;8.182;2023-04-03T05:27:37;0.60;;;0.60;;
21886;SDS011;11108;49.988;8.182;2023-04-03T05:30:03;0.77;;;0.77;;
21886;SDS011;11108;49.988;8.182;2023-04-03T05:32:29;0.60;;;0.60;;
21886;SDS011;11108;49.988;8.182;2023-04-03T05:34:54;0.70;;;0.70;;
21886;SDS011;11108;49.988;8.182;2023-04-03T05:37:19;0.60;;;0.60;;
21886;SDS011;11108;49.988;8.182;2023-04-03T05:39:45;0.73;;;0.73;;
21886;SDS011;11108;49.988;8.182;2023-04-03T05:42:10;0.90;;;0.80;;
21886;SDS011;11108;49.988;8.182;2023-04-03T05:44:36;0.70;;;0.70;;
21886;SDS011;11108;49.988;8.182;2023-04-03T05:47:01;0.70;;;0.70;;
21886;SDS011;11108;49.988;8.182;2023-04-03T05:49:27;0.80;;;0.73;;
21886;SDS011;11108;49.988;8.182;2023-04-03T05:51:52;0.70;;;0.70;;
21886;SDS011;11108;49.988;8.182;2023-04-03T05:54:21;1.10;;;1.03;;
21886;SDS011;11108;49.988;8.182;2023-04-03T05:56:49;0.67;;;0.60;;
21886;SDS011;11108;49.988;8.182;2023-04-03T05:59:14;0.57;;;0.57;;
21886;SDS011;11108;49.988;8.182;2023-04-03T06:01:40;0.70;;;0.70;;
21886;SDS011;11108;49.988;8.182;2023-04-03T06:04:05;0.70;;;0.70;;
21886;SDS011;11108;49.988;8.182;2023-04-03T06:06:50;0.60;;;0.60;;
21886;SDS011;11108;49.988;8.182;2023-04-03T06:09:17;0.70;;;0.70;;
21886;SDS011;11108;49.988;8.182;2023-04-03T06:11:42;0.83;;;0.83;;
21886;SDS011;11108;49.988;8.182;2023-04-03T06:14:08;1.83;;;0.70;;
21886;SDS011;11108;49.988;8.182;2023-04-03T06:16:33;0.57;;;0.57;;
21886;SDS011;11108;49.988;8.182;2023-04-03T06:18:59;1.17;;;1.07;;
21886;SDS011;11108;49.988;8.182;2023-04-03T06:21:24;2.20;;;0.90;;
21886;SDS011;11108;49.988;8.182;2023-04-03T06:23:49;1.60;;;0.70;;
21886;SDS011;11108;49.988;8.182;2023-04-03T06:26:16;0.70;;;0.70;;
21886;SDS011;11108;49.988;8.182;2023-04-03T06:28:41;2.30;;;0.87;;
21886;SDS011;11108;49.988;8.182;2023-04-03T06:31:06;2.93;;;1.00;;
21886;SDS011;11108;49.988;8.182;2023-04-03T06:33:32;2.67;;;0.93;;
21886;SDS011;11108;49.988;8.182;2023-04-03T06:35:57;3.13;;;0.80;;
21886;SDS011;11108;49.988;8.182;2023-04-03T06:38:23;1.70;;;0.80;;
21886;SDS011;11108;49.988;8.182;2023-04-03T06:40:48;1.47;;;0.60;;
21886;SDS011;11108;49.988;8.182;2023-04-03T06:43:13;2.30;;;0.90;;
21886;SDS011;11108;49.988;8.182;2023-04-03T06:45:38;2.90;;;0.93;;
21886;SDS011;11108;49.988;8.182;2023-04-03T06:48:04;1.53;;;0.80;;
21886;SDS011;11108;49.988;8.182;2023-04-03T06:50:29;0.87;;;0.87;;
21886;SDS011;11108;49.988;8.182;2023-04-03T06:52:54;1.60;;;0.90;;
21886;SDS011;11108;49.988;8.182;2023-04-03T06:55:19;0.77;;;0.77;;
21886;SDS011;11108;49.988;8.182;2023-04-03T06:57:45;1.40;;;0.97;;
21886;SDS011;11108;49.988;8.182;2023-04-03T07:00:11;1.13;;;1.00;;
21886;SDS011;11108;49.988;8.182;2023-04-03T07:02:36;8.17;;;1.93;;
21886;SDS011;11108;49.988;8.182;2023-04-03T07:05:02;9.63;;;3.20;;
21886;SDS011;11108;49.988;8.182;2023-04-03T07:07:27;16.37;;;3.60;;
21886;SDS011;11108;49.988;8.182;2023-04-03T07:09:52;17.50;;;4.50;;
21886;SDS011;11108;49.988;8.182;2023-04-03T07:12:18;15.33;;;4.13;;
21886;SDS011;11108;49.988;8.182;2023-04-03T07:14:43;11.93;;;3.17;;
21886;SDS011;11108;49.988;8.182;2023-04-03T07:17:08;12.37;;;3.60;;
21886;SDS011;11108;49.988;8.182;2023-04-03T07:19:34;11.97;;;3.80;;
21886;SDS011;11108;49.988;8.182;2023-04-03T07:21:59;10.20;;;3.17;;
21886;SDS011;11108;49.988;8.182;2023-04-03T07:24:24;13.37;;;3.47;;
21886;SDS011;11108;49.988;8.182;2023-04-03T07:26:50;10.87;;;3.63;;
21886;SDS011;11108;49.988;8.182;2023-04-03T07:29:15;18.63;;;3.10;;
21886;SDS011;11108;49.988;8.182;2023-04-03T07:31:41;11.93;;;3.13;;
21886;SDS011;11108;49.988;8.182;2023-04-03T07:34:06;8.23;;;2.83;;
21886;SDS011;11108;49.988;8.182;2023-04-03T07:36:31;6.50;;;2.67;;
21886;SDS011;11108;49.988;8.182;2023-04-03T07:38:58;8.50;;;2.63;;
21886;SDS011;11108;49.988;8.182;2023-04-03T07:41:23;7.63;;;2.67;;
21886;SDS011;11108;49.988;8.182;2023-04-03T07:43:49;6.30;;;2.77;;
21886;SDS011;11108;49.988;8.182;2023-04-03T07:46:14;11.57;;;3.00;;
21886;SDS011;11108;49.988;8.182;2023-04-03T07:48:40;5.03;;;2.30;;
21886;SDS011;11108;49.988;8.182;2023-04-03T07:51:05;5.10;;;1.70;;
21886;SDS011;11108;49.988;8.182;2023-04-03T07:53:30;8.17;;;2.20;;
21886;SDS011;11108;49.988;8.182;2023-04-03T07:55:57;6.87;;;2.53;;
21886;SDS011;11108;49.988;8.182;2023-04-03T07:58:23;5.73;;;2.40;;
21886;SDS011;11108;49.988;8.182;2023-04-03T08:00:48;4.60;;;2.20;;
21886;SDS011;11108;49.988;8.182;2023-04-03T08:03:14;4.70;;;2.00;;
21886;SDS011;11108;49.988;8.182;2023-04-03T08:05:42;5.17;;;1.90;;
21886;SDS011;11108;49.988;8.182;2023-04-03T08:08:07;5.53;;;2.00;;
21886;SDS011;11108;49.988;8.182;2023-04-03T08:10:32;4.20;;;1.83;;
21886;SDS011;11108;49.988;8.182;2023-04-03T08:12:58;4.47;;;1.43;;
21886;SDS011;11108;49.988;8.182;2023-04-03T08:15:23;4.70;;;1.87;;
21886;SDS011;11108;49.988;8.182;2023-04-03T08:17:48;3.03;;;1.43;;
21886;SDS011;11108;49.988;8.182;2023-04-03T08:20:14;5.23;;;1.67;;
21886;SDS011;11108;49.988;8.182;2023-04-03T08:22:39;5.13;;;1.70;;
21886;SDS011;11108;49.988;8.182;2023-04-03T08:25:06;5.60;;;1.50;;
21886;SDS011;11108;49.988;8.182;2023-04-03T08:27:32;3.03;;;1.70;;
21886;SDS011;11108;49.988;8.182;2023-04-03T08:29:57;4.63;;;1.53;;
21886;SDS011;11108;49.988;8.182;2023-04-03T08:32:22;2.30;;;1.40;;
21886;SDS011;11108;49.988;8.182;2023-04-03T08:34:48;1.60;;;1.10;;
21886;SDS011;11108;49.988;8.182;2023-04-03T08:37:13;3.70;;;1.43;;
21886;SDS011;11108;49.988;8.182;2023-04-03T08:39:38;1.73;;;1.20;;
21886;SDS011;11108;49.988;8.182;2023-04-03T08:42:05;1.20;;;1.00;;
21886;SDS011;11108;49.988;8.182;2023-04-03T08:44:38;2.00;;;1.20;;
21886;SDS011;11108;49.988;8.182;2023-04-03T08:49:40;3.40;;;1.40;;
21886;SDS011;11108;49.988;8.182;2023-04-03T08:52:12;3.40;;;1.20;;
21886;SDS011;11108;49.988;8.182;2023-04-03T08:57:11;1.30;;;1.13;;
21886;SDS011;11108;49.988;8.182;2023-04-03T08:59:37;2.63;;;1.23;;
21886;SDS011;11108;49.988;8.182;2023-04-03T09:02:04;1.33;;;1.00;;
21886;SDS011;11108;49.988;8.182;2023-04-03T09:04:37;2.60;;;1.30;;
21886;SDS011;11108;49.988;8.182;2023-04-03T09:07:05;1.23;;;1.07;;
21886;SDS011;11108;49.988;8.182;2023-04-03T09:09:33;1.50;;;1.03;;
21886;SDS011;11108;49.988;8.182;2023-04-03T09:12:04;2.67;;;1.43;;
21886;SDS011;11108;49.988;8.182;2023-04-03T09:15:34;2.50;;;1.10;;
21886;SDS011;11108;49.988;8.182;2023-04-03T09:18:04;2.83;;;1.20;;
21886;SDS011;11108;49.988;8.182;2023-04-03T09:20:45;3.23;;;1.17;;
21886;SDS011;11108;49.988;8.182;2023-04-03T09:23:34;2.43;;;1.17;;
21886;SDS011;11108;49.988;8.182;2023-04-03T09:25:58;1.53;;;1.10;;
21886;SDS011;11108;49.988;8.182;2023-04-03T09:28:26;1.50;;;0.90;;
21886;SDS011;11108;49.988;8.182;2023-04-03T09:30:51;2.03;;;1.00;;
21886;SDS011;11108;49.988;8.182;2023-04-03T09:33:16;2.60;;;1.13;;
21886;SDS011;11108;49.988;8.182;2023-04-03T09:35:42;1.10;;;1.00;;
21886;SDS011;11108;49.988;8.182;2023-04-03T09:40:36;3.23;;;1.10;;
21886;SDS011;11108;49.988;8.182;2023-04-03T09:43:20;2.67;;;1.20;;
21886;SDS011;11108;49.988;8.182;2023-04-03T09:45:46;1.00;;;0.90;;
21886;SDS011;11108;49.988;8.182;2023-04-03T09:50:37;1.63;;;0.90;;
21886;SDS011;11108;49.988;8.182;2023-04-03T09:53:06;1.57;;;1.10;;
21886;SDS011;11108;49.988;8.182;2023-04-03T09:55:32;2.60;;;1.20;;
21886;SDS011;11108;49.988;8.182;2023-04-03T09:58:06;1.13;;;0.93;;
21886;SDS011;11108;49.988;8.182;2023-04-03T10:00:53;2.50;;;1.20;;
21886;SDS011;11108;49.988;8.182;2023-04-03T10:03:25;0.97;;;0.90;;
21886;SDS011;11108;49.988;8.182;2023-04-03T10:05:52;2.63;;;1.27;;
21886;SDS011;11108;49.988;8.182;2023-04-03T10:08:21;1.83;;;0.90;;
21886;SDS011;11108;49.988;8.182;2023-04-03T10:10:48;2.17;;;1.30;;
21886;SDS011;11108;49.988;8.182;2023-04-03T10:13:29;4.87;;;0.90;;
21886;SDS011;11108;49.988;8.182;2023-04-03T10:18:27;2.47;;;1.00;;
21886;SDS011;11108;49.988;8.182;2023-04-03T10:20:54;2.03;;;1.13;;
21886;SDS011;11108;49.988;8.182;2023-04-03T10:23:24;1.07;;;0.90;;
21886;SDS011;11108;49.988;8.182;2023-04-03T10:28:42;14.87;;;8.40;;
21886;SDS011;11108;49.988;8.182;2023-04-03T10:33:52;51.27;;;26.53;;
21886;SDS011;11108;49.988;8.182;2023-04-03T10:46:20;37.10;;;20.17;;
21886;SDS011;11108;49.988;8.182;2023-04-03T10:49:10;37.17;;;20.53;;
21886;SDS011;11108;49.988;8.182;2023-04-03T10:51:37;34.97;;;20.97;;
21886;SDS011;11108;49.988;8.182;2023-04-03T10:58:59;29.83;;;19.53;;
21886;SDS011;11108;49.988;8.182;2023-04-03T11:01:30;29.93;;;19.57;;
21886;SDS011;11108;49.988;8.182;2023-04-03T11:03:57;30.63;;;18.27;;
21886;SDS011;11108;49.988;8.182;2023-04-03T11:06:23;38.90;;;19.53;;
21886;SDS011;11108;49.988;8.182;2023-04-03T11:08:54;30.97;;;18.00;;
21886;SDS011;11108;49.988;8.182;2023-04-03T11:11:30;28.07;;;17.23;;
21886;SDS011;11108;49.988;8.182;2023-04-03T11:14:01;28.27;;;16.53;;
21886;SDS011;11108;49.988;8.182;2023-04-03T11:16:29;23.50;;;15.47;;
21886;SDS011;11108;49.988;8.182;2023-04-03T11:19:41;26.77;;;15.73;;
21886;SDS011;11108;49.988;8.182;2023-04-03T11:21:45;26.33;;;15.37;;
21886;SDS011;11108;49.988;8.182;2023-04-03T11:24:27;24.03;;;15.33;;
21886;SDS011;11108;49.988;8.182;2023-04-03T11:26:55;24.10;;;14.97;;
21886;SDS011;11108;49.988;8.182;2023-04-03T11:29:22;26.97;;;15.13;;
21886;SDS011;11108;49.988;8.182;2023-04-03T11:34:26;22.67;;;14.63;;
21886;SDS011;11108;49.988;8.182;2023-04-03T11:36:59;20.10;;;13.37;;
21886;SDS011;11108;49.988;8.182;2023-04-03T11:39:26;20.47;;;12.17;;
21886;SDS011;11108;49.988;8.182;2023-04-03T11:41:53;24.17;;;12.30;;
21886;SDS011;11108;49.988;8.182;2023-04-03T11:44:35;21.67;;;13.00;;
21886;SDS011;11108;49.988;8.182;2023-04-03T11:47:02;21.03;;;12.60;;
21886;SDS011;11108;49.988;8.182;2023-04-03T11:52:11;18.83;;;11.70;;
21886;SDS011;11108;49.988;8.182;2023-04-03T11:59:49;17.97;;;10.63;;
21886;SDS011;11108;49.988;8.182;2023-04-03T12:11:08;16.83;;;9.33;;
21886;SDS011;11108;49.988;8.182;2023-04-03T12:13:31;14.30;;;9.57;;
21886;SDS011;11108;49.988;8.182;2023-04-03T12:15:56;15.30;;;9.90;;
21886;SDS011;11108;49.988;8.182;2023-04-03T12:37:02;11.33;;;7.03;;
21886;SDS011;11108;49.988;8.182;2023-04-03T12:39:48;13.83;;;7.47;;
21886;SDS011;11108;49.988;8.182;2023-04-03T12:44:43;12.27;;;7.10;;
21886;SDS011;11108;49.988;8.182;2023-04-03T12:47:27;9.33;;;6.40;;
21886;SDS011;11108;49.988;8.182;2023-04-03T12:49:53;10.47;;;6.87;;
21886;SDS011;11108;49.988;8.182;2023-04-03T12:54:58;10.70;;;6.07;;
21886;SDS011;11108;49.988;8.182;2023-04-03T12:57:24;11.23;;;6.60;;
21886;SDS011;11108;49.988;8.182;2023-04-03T12:59:50;8.73;;;6.10;;
21886;SDS011;11108;49.988;8.182;2023-04-03T13:02:17;11.17;;;6.27;;
21886;SDS011;11108;49.988;8.182;2023-04-03T13:04:44;8.60;;;6.20;;
21886;SDS011;11108;49.988;8.182;2023-04-03T13:12:32;9.17;;;6.00;;
21886;SDS011;11108;49.988;8.182;2023-04-03T13:15:00;7.80;;;5.43;;
21886;SDS011;11108;49.988;8.182;2023-04-03T13:17:26;7.77;;;5.27;;
21886;SDS011;11108;49.988;8.182;2023-04-03T13:19:52;9.10;;;5.07;;
21886;SDS011;11108;49.988;8.182;2023-04-03T13:22:34;10.57;;;5.43;;
21886;SDS011;11108;49.988;8.182;2023-04-03T13:25:04;6.57;;;5.07;;
21886;SDS011;11108;49.988;8.182;2023-04-03T13:27:31;9.63;;;5.53;;
21886;SDS011;11108;49.988;8.182;2023-04-03T13:29:57;6.60;;;4.83;;
21886;SDS011;11108;49.988;8.182;2023-04-03T13:32:24;7.20;;;4.97;;
21886;SDS011;11108;49.988;8.182;2023-04-03T13:34:50;9.53;;;5.23;;
21886;SDS011;11108;49.988;8.182;2023-04-03T13:39:55;8.00;;;4.57;;
21886;SDS011;11108;49.988;8.182;2023-04-03T13:42:23;6.90;;;4.63;;
21886;SDS011;11108;49.988;8.182;2023-04-03T13:44:48;6.57;;;4.63;;
21886;SDS011;11108;49.988;8.182;2023-04-03T13:47:15;5.97;;;4.00;;
21886;SDS011;11108;49.988;8.182;2023-04-03T13:49:42;6.87;;;4.27;;
21886;SDS011;11108;49.988;8.182;2023-04-03T13:54:45;6.37;;;4.00;;
21886;SDS011;11108;49.988;8.182;2023-04-03T13:57:13;7.10;;;4.10;;
21886;SDS011;11108;49.988;8.182;2023-04-03T13:59:39;8.87;;;4.00;;
21886;SDS011;11108;49.988;8.182;2023-04-03T14:04:45;6.27;;;3.77;;
21886;SDS011;11108;49.988;8.182;2023-04-03T14:07:11;8.10;;;3.63;;
21886;SDS011;11108;49.988;8.182;2023-04-03T14:09:36;6.17;;;4.00;;
21886;SDS011;11108;49.988;8.182;2023-04-03T14:12:04;8.07;;;3.80;;
21886;SDS011;11108;49.988;8.182;2023-04-03T14:14:30;5.70;;;3.50;;
21886;SDS011;11108;49.988;8.182;2023-04-03T14:16:58;7.77;;;4.30;;
21886;SDS011;11108;49.988;8.182;2023-04-03T14:19:25;5.20;;;3.07;;
21886;SDS011;11108;49.988;8.182;2023-04-03T14:21:51;4.60;;;3.37;;
21886;SDS011;11108;49.988;8.182;2023-04-03T14:24:17;4.83;;;3.13;;
21886;SDS011;11108;49.988;8.182;2023-04-03T14:26:44;4.63;;;3.50;;
21886;SDS011;11108;49.988;8.182;2023-04-03T14:29:10;4.90;;;3.23;;
21886;SDS011;11108;49.988;8.182;2023-04-03T14:31:36;4.23;;;3.17;;
21886;SDS011;11108;49.988;8.182;2023-04-03T14:34:01;6.10;;;3.43;;
21886;SDS011;11108;49.988;8.182;2023-04-03T14:36:27;3.90;;;2.80;;
21886;SDS011;11108;49.988;8.182;2023-04-03T14:38:53;6.83;;;3.17;;
21886;SDS011;11108;49.988;8.182;2023-04-03T14:41:20;3.23;;;2.97;;
21886;SDS011;11108;49.988;8.182;2023-04-03T14:43:46;5.40;;;3.23;;
21886;SDS011;11108;49.988;8.182;2023-04-03T14:46:16;3.60;;;2.67;;
21886;SDS011;11108;49.988;8.182;2023-04-03T14:48:42;2.60;;;2.40;;
21886;SDS011;11108;49.988;8.182;2023-04-03T14:51:08;5.97;;;3.00;;
21886;SDS011;11108;49.988;8.182;2023-04-03T14:53:34;4.83;;;2.93;;
21886;SDS011;11108;49.988;8.182;2023-04-03T14:56:00;4.23;;;2.67;;
21886;SDS011;11108;49.988;8.182;2023-04-03T14:58:27;3.63;;;2.73;;
21886;SDS011;11108;49.988;8.182;2023-04-03T15:00:52;3.90;;;2.97;;
21886;SDS011;11108;49.988;8.182;2023-04-03T15:03:19;3.17;;;2.37;;
21886;SDS011;11108;49.988;8.182;2023-04-03T15:05:45;3.73;;;2.67;;
21886;SDS011;11108;49.988;8.182;2023-04-03T15:10:41;5.37;;;2.50;;
21886;SDS011;11108;49.988;8.182;2023-04-03T15:13:07;3.37;;;2.70;;
21886;SDS011;11108;49.988;8.182;2023-04-03T15:15:33;3.23;;;2.63;;
21886;SDS011;11108;49.988;8.182;2023-04-03T15:17:59;4.53;;;2.90;;
21886;SDS011;11108;49.988;8.182;2023-04-03T15:20:25;3.60;;;2.60;;
21886;SDS011;11108;49.988;8.182;2023-04-03T15:22:51;6.33;;;2.40;;
21886;SDS011;11108;49.988;8.182;2023-04-03T15:25:16;3.07;;;2.37;;
21886;SDS011;11108;49.988;8.182;2023-04-03T15:27:43;3.80;;;2.47;;
21886;SDS011;11108;49.988;8.182;2023-04-03T15:30:10;3.27;;;2.30;;
21886;SDS011;11108;49.988;8.182;2023-04-03T15:32:37;2.27;;;2.07;;
21886;SDS011;11108;49.988;8.182;2023-04-03T15:35:02;4.27;;;2.00;;
21886;SDS011;11108;49.988;8.182;2023-04-03T15:37:28;4.13;;;2.33;;
21886;SDS011;11108;49.988;8.182;2023-04-03T15:39:53;3.43;;;1.87;;
21886;SDS011;11108;49.988;8.182;2023-04-03T15:42:18;2.50;;;2.07;;
21886;SDS011;11108;49.988;8.182;2023-04-03T15:44:43;2.43;;;2.23;;
21886;SDS011;11108;49.988;8.182;2023-04-03T15:47:09;4.53;;;2.00;;
21886;SDS011;11108;49.988;8.182;2023-04-03T15:49:34;4.87;;;2.40;;
21886;SDS011;11108;49.988;8.182;2023-04-03T15:52:00;3.47;;;2.43;;
21886;SDS011;11108;49.988;8.182;2023-04-03T15:54:25;2.97;;;2.33;;
21886;SDS011;11108;49.988;8.182;2023-04-03T15:56:50;3.53;;;2.17;;
21886;SDS011;11108;49.988;8.182;2023-04-03T15:59:16;2.10;;;1.90;;
21886;SDS011;11108;49.988;8.182;2023-04-03T16:01:41;3.33;;;2.00;;
21886;SDS011;11108;49.988;8.182;2023-04-03T16:04:07;3.40;;;2.10;;
21886;SDS011;11108;49.988;8.182;2023-04-03T16:06:33;2.73;;;2.00;;
21886;SDS011;11108;49.988;8.182;2023-04-03T16:08:58;1.80;;;1.70;;
21886;SDS011;11108;49.988;8.182;2023-04-03T16:11:24;2.90;;;1.87;;
21886;SDS011;11108;49.988;8.182;2023-04-03T16:13:50;4.23;;;2.13;;
21886;SDS011;11108;49.988;8.182;2023-04-03T16:16:15;2.77;;;1.93;;